Check out our new BloomSky Weather System.

Active alerts


No alerts


Thunder radar  blitzortung!


Rain radar more information rain snow radar


Visit our other weather sites:

Template documentation
and downloads

And another site



Weather Underground History page Text

Daily Summary for June 29, 2017 Units:  English    Metric   Both
« Previous Day
Next Day »
Daily Weekly Monthly Yearly Custom
  High: Low: Average:
Temperature: 92.7 °F 74.5 °F 83.6 °F
Dew Point: 80.6 °F 72.9 °F 77 °F
Humidity: 97 % 60 % 81 %
Wind Speed: 12.0 mph 0.0 mph 3.3 mph
Wind Gust: 17.0 mph - -
Wind:- - SSE
Pressure: 29.89 in 29.83 in -
Precipitation: 0.00 in    
Historical Graphs
 
 
Tabular Data for June 29, 2017
Time Temperature Dew Point Pressure Wind Wind Speed Wind Gust Humidity Rainfall Rate (Hourly)
00:03 78.1 °F 74.3 °F 29.86 in SE 1.0 mph 5.0 mph 88 % 0.00 in
00:08 77.9 °F 74.1 °F 29.86 in SE 2.0 mph 7.0 mph 88 % 0.00 in
00:14 77.9 °F 74.1 °F 29.86 in ESE 1.0 mph 7.0 mph 88 % 0.00 in
00:19 77.9 °F 74.1 °F 29.86 in ENE 4.0 mph 7.0 mph 88 % 0.00 in
00:24 77.7 °F 73.9 °F 29.86 in East 1.0 mph 6.0 mph 88 % 0.00 in
00:29 77.7 °F 73.9 °F 29.87 in East 2.0 mph 5.0 mph 88 % 0.00 in
00:34 77.7 °F 73.9 °F 29.87 in Calm   5.0 mph 88 % 0.00 in
00:36 77.7 °F 73.9 °F 29.87 in Calm   4.0 mph 88 % 0.00 in
00:41 77.7 °F 73.9 °F 29.87 in East 1.0 mph 4.0 mph 88 % 0.00 in
00:46 77.9 °F 74.1 °F 29.87 in Calm   4.0 mph 88 % 0.00 in
00:51 78.1 °F 74.3 °F 29.87 in ESE 2.0 mph 4.0 mph 88 % 0.00 in
00:56 78.1 °F 74.3 °F 29.87 in Calm   4.0 mph 88 % 0.00 in
01:01 78.1 °F 74.3 °F 29.87 in Calm   4.0 mph 88 % 0.00 in
01:06 78.1 °F 74.3 °F 29.87 in Calm   5.0 mph 88 % 0.00 in
01:11 78.1 °F 74.3 °F 29.87 in Calm   5.0 mph 88 % 0.00 in
01:17 78.1 °F 74.3 °F 29.87 in Calm   5.0 mph 88 % 0.00 in
01:22 77.9 °F 74.1 °F 29.87 in East 1.0 mph 2.0 mph 88 % 0.00 in
01:27 77.7 °F 73.9 °F 29.87 in ESE 1.0 mph 3.0 mph 88 % 0.00 in
01:32 77.7 °F 73.9 °F 29.87 in Calm   3.0 mph 88 % 0.00 in
01:37 77.7 °F 73.9 °F 29.87 in East 1.0 mph 3.0 mph 88 % 0.00 in
01:42 77.7 °F 74.3 °F 29.87 in Calm   2.0 mph 89 % 0.00 in
01:47 77.5 °F 74.1 °F 29.87 in Calm   2.0 mph 89 % 0.00 in
01:52 77.5 °F 74.1 °F 29.86 in Calm   2.0 mph 89 % 0.00 in
01:57 77.5 °F 74.1 °F 29.86 in Calm   2.0 mph 89 % 0.00 in
02:02 77.4 °F 73.9 °F 29.86 in Calm   2.0 mph 89 % 0.00 in
02:07 77.2 °F 73.8 °F 29.86 in Calm   2.0 mph 89 % 0.00 in
02:12 77.2 °F 73.8 °F 29.86 in Calm   2.0 mph 89 % 0.00 in
02:17 77.0 °F 73.6 °F 29.86 in East 1.0 mph 2.0 mph 89 % 0.00 in
02:22 76.8 °F 73.4 °F 29.86 in Calm   2.0 mph 89 % 0.00 in
02:27 76.8 °F 73.4 °F 29.86 in Calm   2.0 mph 89 % 0.00 in
02:32 76.8 °F 73.4 °F 29.86 in Calm   3.0 mph 89 % 0.00 in
02:37 76.8 °F 73.4 °F 29.85 in Calm   3.0 mph 89 % 0.00 in
02:42 76.6 °F 73.2 °F 29.85 in Calm   3.0 mph 89 % 0.00 in
02:47 76.6 °F 73.4 °F 29.85 in Calm   1.0 mph 90 % 0.00 in
02:52 76.5 °F 73.2 °F 29.84 in Calm   1.0 mph 90 % 0.00 in
02:57 76.3 °F 73.0 °F 29.84 in Calm   1.0 mph 90 % 0.00 in
03:02 76.3 °F 73.0 °F 29.84 in Calm   1.0 mph 90 % 0.00 in
03:07 76.3 °F 73.0 °F 29.83 in Calm   1.0 mph 90 % 0.00 in
03:12 76.1 °F 73.2 °F 29.83 in Calm   1.0 mph 91 % 0.00 in
03:17 76.1 °F 73.2 °F 29.83 in Calm   2.0 mph 91 % 0.00 in
03:22 75.9 °F 73.0 °F 29.83 in Calm   2.0 mph 91 % 0.00 in
03:27 75.9 °F 73.4 °F 29.83 in Calm   2.0 mph 92 % 0.00 in
03:32 75.9 °F 73.4 °F 29.83 in Calm   2.0 mph 92 % 0.00 in
03:37 75.9 °F 73.4 °F 29.83 in East 1.0 mph 2.0 mph 92 % 0.00 in
03:42 75.9 °F 73.4 °F 29.83 in ENE 1.0 mph 3.0 mph 92 % 0.00 in
03:47 75.7 °F 73.2 °F 29.83 in Calm   3.0 mph 92 % 0.00 in
03:52 75.7 °F 73.2 °F 29.83 in East 1.0 mph 3.0 mph 92 % 0.00 in
03:57 75.7 °F 73.6 °F 29.83 in Calm   2.0 mph 93 % 0.00 in
04:02 75.6 °F 73.4 °F 29.83 in ESE 1.0 mph 2.0 mph 93 % 0.00 in
04:07 75.6 °F 73.4 °F 29.83 in Calm   2.0 mph 93 % 0.00 in
04:12 75.6 °F 73.4 °F 29.83 in Calm   1.0 mph 93 % 0.00 in
04:17 75.4 °F 73.2 °F 29.83 in Calm   1.0 mph 93 % 0.00 in
04:22 75.4 °F 73.2 °F 29.83 in Calm   2.0 mph 93 % 0.00 in
04:27 75.2 °F 73.0 °F 29.83 in Calm   2.0 mph 93 % 0.00 in
04:32 75.0 °F 73.2 °F 29.83 in Calm   2.0 mph 94 % 0.00 in
04:37 75.0 °F 73.2 °F 29.83 in Calm   1.0 mph 94 % 0.00 in
04:42 75.0 °F 73.2 °F 29.83 in Calm   1.0 mph 94 % 0.00 in
04:47 75.0 °F 73.2 °F 29.83 in Calm   1.0 mph 94 % 0.00 in
04:52 75.0 °F 73.2 °F 29.83 in Calm   1.0 mph 94 % 0.00 in
04:57 74.8 °F 73.0 °F 29.83 in Calm   1.0 mph 94 % 0.00 in
05:02 74.8 °F 73.0 °F 29.83 in Calm   1.0 mph 94 % 0.00 in
05:07 74.7 °F 72.9 °F 29.83 in Calm   1.0 mph 94 % 0.00 in
05:12 74.7 °F 73.2 °F 29.83 in Calm   1.0 mph 95 % 0.00 in
05:17 74.5 °F 73.0 °F 29.83 in Calm   1.0 mph 95 % 0.00 in
05:22 74.5 °F 73.0 °F 29.83 in Calm   1.0 mph 95 % 0.00 in
05:28 74.5 °F 73.0 °F 29.83 in Calm   1.0 mph 95 % 0.00 in
05:33 74.7 °F 73.2 °F 29.84 in Calm   1.0 mph 95 % 0.00 in
05:43 74.7 °F 73.2 °F 29.84 in Calm   2.0 mph 95 % 0.00 in
05:48 74.7 °F 73.2 °F 29.84 in Calm   2.0 mph 95 % 0.00 in
05:53 74.7 °F 73.2 °F 29.84 in Calm   2.0 mph 95 % 0.00 in
05:58 74.7 °F 73.4 °F 29.84 in Calm   1.0 mph 96 % 0.00 in
06:03 74.7 °F 73.4 °F 29.85 in ENE 2.0 mph 2.0 mph 96 % 0.00 in
06:08 74.7 °F 73.4 °F 29.85 in Calm   2.0 mph 96 % 0.00 in
06:13 74.7 °F 73.4 °F 29.84 in Calm   2.0 mph 96 % 0.00 in
06:18 74.7 °F 73.4 °F 29.84 in Calm   2.0 mph 96 % 0.00 in
06:23 74.7 °F 73.4 °F 29.84 in Calm   1.0 mph 96 % 0.00 in
06:28 74.7 °F 73.4 °F 29.84 in Calm   1.0 mph 96 % 0.00 in
06:33 74.7 °F 73.4 °F 29.84 in Calm   1.0 mph 96 % 0.00 in
06:38 74.7 °F 73.4 °F 29.84 in Calm   1.0 mph 96 % 0.00 in
06:43 74.7 °F 73.4 °F 29.84 in Calm   1.0 mph 96 % 0.00 in
06:48 74.8 °F 73.9 °F 29.84 in Calm   1.0 mph 97 % 0.00 in
06:53 74.8 °F 73.9 °F 29.85 in Calm   1.0 mph 97 % 0.00 in
06:58 74.8 °F 73.9 °F 29.86 in Calm   1.0 mph 97 % 0.00 in
07:03 75.0 °F 74.1 °F 29.86 in Calm   1.0 mph 97 % 0.00 in
07:08 75.4 °F 74.5 °F 29.86 in ESE 1.0 mph 3.0 mph 97 % 0.00 in
07:13 75.6 °F 74.7 °F 29.86 in Calm   3.0 mph 97 % 0.00 in
07:18 76.1 °F 75.2 °F 29.86 in Calm   3.0 mph 97 % 0.00 in
07:23 76.3 °F 75.0 °F 29.87 in ESE 2.0 mph 2.0 mph 96 % 0.00 in
07:28 76.3 °F 75.0 °F 29.87 in SE 1.0 mph 4.0 mph 96 % 0.00 in
07:33 76.3 °F 75.0 °F 29.87 in ESE 2.0 mph 4.0 mph 96 % 0.00 in
07:38 76.3 °F 75.0 °F 29.87 in ESE 1.0 mph 4.0 mph 96 % 0.00 in
07:43 76.6 °F 75.7 °F 29.87 in Calm   4.0 mph 97 % 0.00 in
07:48 77.2 °F 76.3 °F 29.87 in ESE 1.0 mph 4.0 mph 97 % 0.00 in
07:53 77.7 °F 76.8 °F 29.87 in Calm   4.0 mph 97 % 0.00 in
07:58 78.4 °F 77.2 °F 29.87 in Calm   3.0 mph 96 % 0.00 in
08:03 79.2 °F 77.5 °F 29.87 in ESE 2.0 mph 3.0 mph 95 % 0.00 in
08:08 79.3 °F 77.5 °F 29.87 in East 2.0 mph 3.0 mph 94 % 0.00 in
08:13 79.5 °F 77.4 °F 29.87 in NE 2.0 mph 4.0 mph 93 % 0.00 in
08:15 79.5 °F 77.4 °F 29.87 in SE 1.0 mph 4.0 mph 93 % 0.00 in
08:20 79.7 °F 77.2 °F 29.87 in Calm   4.0 mph 92 % 0.00 in
08:25 80.2 °F 77.7 °F 29.88 in Calm   3.0 mph 92 % 0.00 in
08:30 80.6 °F 77.7 °F 29.88 in ESE 1.0 mph 4.0 mph 91 % 0.00 in
08:35 80.8 °F 77.9 °F 29.88 in Calm   4.0 mph 91 % 0.00 in
08:40 81.0 °F 77.7 °F 29.88 in East 5.0 mph 6.0 mph 90 % 0.00 in
08:45 80.8 °F 77.2 °F 29.88 in ESE 1.0 mph 6.0 mph 89 % 0.00 in
08:50 80.8 °F 77.5 °F 29.88 in Calm   6.0 mph 90 % 0.00 in
08:55 81.3 °F 78.1 °F 29.88 in SSE 2.0 mph 6.0 mph 90 % 0.00 in
09:00 81.7 °F 78.1 °F 29.88 in East 3.0 mph 5.0 mph 89 % 0.00 in
09:05 81.9 °F 78.3 °F 29.88 in ESE 4.0 mph 6.0 mph 89 % 0.00 in
09:10 82.2 °F 78.3 °F 29.88 in SSE 5.0 mph 6.0 mph 88 % 0.00 in
09:15 82.8 °F 78.4 °F 29.89 in SE 2.0 mph 6.0 mph 87 % 0.00 in
09:20 83.5 °F 78.4 °F 29.88 in SE 3.0 mph 6.0 mph 85 % 0.00 in
09:25 83.8 °F 79.5 °F 29.89 in SSW 1.0 mph 6.0 mph 87 % 0.00 in
09:30 84.7 °F 79.3 °F 29.89 in SSW 1.0 mph 6.0 mph 84 % 0.00 in
09:35 85.3 °F 79.2 °F 29.89 in Calm   4.0 mph 82 % 0.00 in
09:39 85.5 °F 79.0 °F 29.89 in SE 1.0 mph 4.0 mph 81 % 0.00 in
09:44 85.5 °F 78.6 °F 29.89 in Calm   5.0 mph 80 % 0.00 in
09:49 85.5 °F 78.6 °F 29.89 in SSW 3.0 mph 5.0 mph 80 % 0.00 in
09:54 85.8 °F 79.3 °F 29.89 in SSW 3.0 mph 5.0 mph 81 % 0.00 in
09:59 86.2 °F 79.0 °F 29.89 in SE 4.0 mph 7.0 mph 79 % 0.00 in
10:04 86.4 °F 78.3 °F 29.89 in WNW 3.0 mph 9.0 mph 77 % 0.00 in
10:09 86.5 °F 78.8 °F 29.89 in SSW 2.0 mph 9.0 mph 78 % 0.00 in
10:14 86.7 °F 79.3 °F 29.88 in South 5.0 mph 9.0 mph 79 % 0.00 in
10:19 87.1 °F 79.3 °F 29.88 in South 1.0 mph 9.0 mph 78 % 0.00 in
10:24 87.6 °F 79.5 °F 29.88 in ESE 4.0 mph 9.0 mph 77 % 0.00 in
10:29 88.3 °F 79.9 °F 29.88 in South 2.0 mph 7.0 mph 76 % 0.00 in
10:34 88.3 °F 79.0 °F 29.88 in WNW 2.0 mph 7.0 mph 74 % 0.00 in
10:39 88.0 °F 79.0 °F 29.88 in South 1.0 mph 7.0 mph 75 % 0.00 in
10:44 87.8 °F 78.4 °F 29.88 in SE 6.0 mph 8.0 mph 74 % 0.00 in
10:49 87.6 °F 79.2 °F 29.87 in East 4.0 mph 8.0 mph 76 % 0.00 in
10:54 87.8 °F 78.8 °F 29.87 in SE 4.0 mph 8.0 mph 75 % 0.00 in
10:59 88.2 °F 78.4 °F 29.87 in South 6.0 mph 9.0 mph 73 % 0.00 in
11:04 88.0 °F 78.6 °F 29.87 in SE 1.0 mph 9.0 mph 74 % 0.00 in
11:09 88.3 °F 78.6 °F 29.87 in SSE 2.0 mph 9.0 mph 73 % 0.00 in
11:14 88.2 °F 78.4 °F 29.87 in SSW 6.0 mph 8.0 mph 73 % 0.00 in
11:19 88.2 °F 78.4 °F 29.87 in SSW 1.0 mph 8.0 mph 73 % 0.00 in
11:24 88.5 °F 78.8 °F 29.87 in SSE 6.0 mph 8.0 mph 73 % 0.00 in
11:29 88.3 °F 78.1 °F 29.87 in SW 5.0 mph 9.0 mph 72 % 0.00 in
11:34 88.0 °F 77.9 °F 29.87 in WNW 1.0 mph 9.0 mph 72 % 0.00 in
11:39 88.5 °F 78.3 °F 29.87 in SSE 2.0 mph 9.0 mph 72 % 0.00 in
11:44 88.5 °F 78.3 °F 29.87 in Calm   8.0 mph 72 % 0.00 in
11:49 88.5 °F 77.9 °F 29.87 in SSE 3.0 mph 6.0 mph 71 % 0.00 in
11:54 88.0 °F 77.9 °F 29.88 in SE 5.0 mph 9.0 mph 72 % 0.00 in
11:59 86.9 °F 78.1 °F 29.88 in SSW 4.0 mph 9.0 mph 75 % 0.00 in
12:04 86.4 °F 77.9 °F 29.88 in SSE 3.0 mph 9.0 mph 76 % 0.00 in
12:09 86.4 °F 78.3 °F 29.88 in SSE 2.0 mph 9.0 mph 77 % 0.00 in
12:14 86.5 °F 78.8 °F 29.88 in SSW 2.0 mph 9.0 mph 78 % 0.00 in
12:19 87.1 °F 79.0 °F 29.88 in SSE 2.0 mph 6.0 mph 77 % 0.00 in
12:24 87.4 °F 77.7 °F 29.88 in SSE 2.0 mph 6.0 mph 73 % 0.00 in
12:29 88.7 °F 80.6 °F 29.87 in Calm   7.0 mph 77 % 0.00 in
12:34 90.1 °F 79.9 °F 29.87 in SSW 7.0 mph 7.0 mph 72 % 0.00 in
12:39 90.3 °F 78.8 °F 29.87 in SSE 2.0 mph 9.0 mph 69 % 0.00 in
12:44 90.7 °F 79.2 °F 29.87 in ENE 3.0 mph 9.0 mph 69 % 0.00 in
12:49 90.7 °F 77.4 °F 29.87 in WNW 1.0 mph 9.0 mph 65 % 0.00 in
12:54 90.3 °F 77.4 °F 29.87 in South 7.0 mph 9.0 mph 66 % 0.00 in
12:59 90.3 °F 77.4 °F 29.87 in South 3.0 mph 9.0 mph 66 % 0.00 in
13:04 90.7 °F 77.7 °F 29.87 in SSW 6.0 mph 9.0 mph 66 % 0.00 in
13:09 90.3 °F 77.4 °F 29.87 in SW 3.0 mph 13.0 mph 66 % 0.00 in
13:14 90.0 °F 77.5 °F 29.87 in SW 4.0 mph 13.0 mph 67 % 0.00 in
13:19 89.2 °F 77.4 °F 29.87 in SSW 5.0 mph 13.0 mph 68 % 0.00 in
13:24 89.1 °F 78.1 °F 29.87 in SSE 7.0 mph 9.0 mph 70 % 0.00 in
13:29 89.1 °F 78.1 °F 29.87 in SW 6.0 mph 9.0 mph 70 % 0.00 in
13:34 89.1 °F 78.1 °F 29.86 in SSW 1.0 mph 11.0 mph 70 % 0.00 in
13:39 89.4 °F 79.2 °F 29.86 in South 7.0 mph 11.0 mph 72 % 0.00 in
13:44 90.0 °F 78.8 °F 29.86 in South 2.0 mph 11.0 mph 70 % 0.00 in
13:49 90.3 °F 79.7 °F 29.86 in SSW 4.0 mph 9.0 mph 71 % 0.00 in
13:50 90.3 °F 79.7 °F 29.86 in South 5.0 mph 9.0 mph 71 % 0.00 in
13:55 90.9 °F 78.8 °F 29.86 in SSW 5.0 mph 9.0 mph 68 % 0.00 in
13:59 91.2 °F 79.2 °F 29.86 in South 4.0 mph 12.0 mph 68 % 0.00 in
14:05 91.8 °F 79.2 °F 29.86 in SW 7.0 mph 13.0 mph 67 % 0.00 in
14:10 92.1 °F 77.2 °F 29.86 in South 10.0 mph 13.0 mph 62 % 0.00 in
14:15 92.5 °F 78.1 °F 29.86 in SSW 4.0 mph 11.0 mph 63 % 0.00 in
14:20 92.5 °F 76.6 °F 29.86 in SE 3.0 mph 12.0 mph 60 % 0.00 in
14:25 92.1 °F 76.6 °F 29.86 in West 4.0 mph 13.0 mph 61 % 0.00 in
14:30 91.9 °F 77.5 °F 29.86 in SSE 6.0 mph 13.0 mph 63 % 0.00 in
14:35 91.9 °F 78.4 °F 29.86 in SSW 5.0 mph 13.0 mph 65 % 0.00 in
14:40 91.9 °F 78.4 °F 29.86 in South 5.0 mph 11.0 mph 65 % 0.00 in
14:45 92.3 °F 77.4 °F 29.85 in SSE 8.0 mph 11.0 mph 62 % 0.00 in
14:50 92.7 °F 78.3 °F 29.85 in SW 7.0 mph 11.0 mph 63 % 0.00 in
14:55 92.1 °F 77.2 °F 29.85 in SW 5.0 mph 11.0 mph 62 % 0.00 in
15:00 91.4 °F 77.5 °F 29.85 in SSW 3.0 mph 12.0 mph 64 % 0.00 in
15:05 90.9 °F 78.4 °F 29.86 in SE 7.0 mph 12.0 mph 67 % 0.00 in
15:10 89.6 °F 79.0 °F 29.86 in SSW 5.0 mph 15.0 mph 71 % 0.00 in
15:11 89.4 °F 78.8 °F 29.86 in SSE 6.0 mph 15.0 mph 71 % 0.00 in
15:16 89.2 °F 77.4 °F 29.86 in SSW 7.0 mph 15.0 mph 68 % 0.00 in
15:21 89.2 °F 76.8 °F 29.86 in South 4.0 mph 17.0 mph 67 % 0.00 in
15:26 89.4 °F 77.5 °F 29.86 in SSW 11.0 mph 17.0 mph 68 % 0.00 in
15:31 89.8 °F 78.6 °F 29.86 in South 5.0 mph 17.0 mph 70 % 0.00 in
15:36 90.0 °F 78.8 °F 29.86 in SE 4.0 mph 17.0 mph 70 % 0.00 in
15:41 90.1 °F 78.1 °F 29.86 in SSW 6.0 mph 17.0 mph 68 % 0.00 in
15:46 90.3 °F 78.3 °F 29.85 in ESE 7.0 mph 17.0 mph 68 % 0.00 in
15:51 90.5 °F 77.5 °F 29.85 in SW 4.0 mph 16.0 mph 66 % 0.00 in
15:56 90.9 °F 78.4 °F 29.85 in South 5.0 mph 16.0 mph 67 % 0.00 in
16:01 90.7 °F 78.3 °F 29.85 in SSE 9.0 mph 14.0 mph 67 % 0.00 in
16:06 90.9 °F 78.8 °F 29.84 in SE 5.0 mph 14.0 mph 68 % 0.00 in
16:11 90.9 °F 79.3 °F 29.84 in ESE 7.0 mph 13.0 mph 69 % 0.00 in
16:16 90.3 °F 79.2 °F 29.84 in SE 4.0 mph 12.0 mph 70 % 0.00 in
16:21 90.0 °F 79.3 °F 29.84 in South 9.0 mph 12.0 mph 71 % 0.00 in
16:26 90.0 °F 78.8 °F 29.84 in ESE 9.0 mph 13.0 mph 70 % 0.00 in
16:32 90.0 °F 79.3 °F 29.84 in SW 5.0 mph 13.0 mph 71 % 0.00 in
16:37 90.3 °F 79.2 °F 29.84 in NE 5.0 mph 13.0 mph 70 % 0.00 in
16:42 90.3 °F 79.2 °F 29.84 in SSE 10.0 mph 15.0 mph 70 % 0.00 in
16:47 90.3 °F 78.8 °F 29.83 in SSE 7.0 mph 15.0 mph 69 % 0.00 in
16:52 90.9 °F 79.3 °F 29.84 in SSW 6.0 mph 15.0 mph 69 % 0.00 in
16:57 90.9 °F 79.7 °F 29.84 in SSE 7.0 mph 14.0 mph 70 % 0.00 in
17:02 90.7 °F 78.6 °F 29.84 in ESE 10.0 mph 16.0 mph 68 % 0.00 in
17:07 90.3 °F 78.8 °F 29.84 in South 9.0 mph 16.0 mph 69 % 0.00 in
17:12 90.7 °F 78.6 °F 29.84 in SSE 11.0 mph 16.0 mph 68 % 0.00 in
17:17 90.9 °F 78.8 °F 29.83 in SSE 4.0 mph 13.0 mph 68 % 0.00 in
17:22 91.2 °F 78.3 °F 29.83 in SE 5.0 mph 13.0 mph 66 % 0.00 in
17:27 91.6 °F 79.0 °F 29.83 in SE 8.0 mph 12.0 mph 67 % 0.00 in
17:32 91.6 °F 78.6 °F 29.83 in East 5.0 mph 12.0 mph 66 % 0.00 in
17:37 91.8 °F 79.7 °F 29.83 in ESE 6.0 mph 12.0 mph 68 % 0.00 in
17:42 91.0 °F 78.6 °F 29.83 in SE 7.0 mph 13.0 mph 67 % 0.00 in
17:43 90.7 °F 78.3 °F 29.83 in SE 12.0 mph 13.0 mph 67 % 0.00 in
17:48 89.8 °F 78.3 °F 29.83 in ESE 9.0 mph 14.0 mph 69 % 0.00 in
17:53 89.6 °F 78.4 °F 29.83 in South 4.0 mph 14.0 mph 70 % 0.00 in
17:58 89.8 °F 78.6 °F 29.83 in ESE 8.0 mph 14.0 mph 70 % 0.00 in
18:03 90.0 °F 78.8 °F 29.83 in SE 5.0 mph 14.0 mph 70 % 0.00 in
18:04 90.0 °F 78.8 °F 29.83 in South 2.0 mph 14.0 mph 70 % 0.00 in
18:09 90.1 °F 79.0 °F 29.83 in SSE 2.0 mph 12.0 mph 70 % 0.00 in
18:14 90.0 °F 78.8 °F 29.83 in SE 8.0 mph 12.0 mph 70 % 0.00 in
18:19 90.0 °F 78.8 °F 29.83 in South 4.0 mph 12.0 mph 70 % 0.00 in
18:24 90.0 °F 78.8 °F 29.83 in SSW 10.0 mph 12.0 mph 70 % 0.00 in
18:29 90.0 °F 78.8 °F 29.83 in SSE 7.0 mph 12.0 mph 70 % 0.00 in
18:34 90.0 °F 78.4 °F 29.83 in South 7.0 mph 11.0 mph 69 % 0.00 in
18:39 89.8 °F 78.3 °F 29.83 in SSE 6.0 mph 11.0 mph 69 % 0.00 in
18:44 89.6 °F 78.4 °F 29.83 in SSE 5.0 mph 12.0 mph 70 % 0.00 in
18:49 89.4 °F 78.8 °F 29.83 in ESE 6.0 mph 12.0 mph 71 % 0.00 in
18:54 89.4 °F 78.8 °F 29.83 in South 7.0 mph 12.0 mph 71 % 0.00 in
18:59 89.2 °F 79.0 °F 29.83 in SE 6.0 mph 12.0 mph 72 % 0.00 in
19:04 89.1 °F 78.8 °F 29.83 in South 5.0 mph 12.0 mph 72 % 0.00 in
19:09 89.1 °F 80.1 °F 29.83 in ESE 9.0 mph 11.0 mph 75 % 0.00 in
19:14 88.3 °F 79.9 °F 29.83 in SE 4.0 mph 10.0 mph 76 % 0.00 in
19:19 88.0 °F 80.2 °F 29.83 in South 8.0 mph 13.0 mph 78 % 0.00 in
19:24 87.6 °F 80.2 °F 29.84 in SE 6.0 mph 13.0 mph 79 % 0.00 in
19:29 87.4 °F 80.1 °F 29.84 in SE 5.0 mph 13.0 mph 79 % 0.00 in
19:34 87.3 °F 79.9 °F 29.84 in SE 7.0 mph 12.0 mph 79 % 0.00 in
19:39 87.1 °F 79.7 °F 29.84 in SE 8.0 mph 12.0 mph 79 % 0.00 in
19:44 86.7 °F 79.9 °F 29.84 in ESE 6.0 mph 15.0 mph 80 % 0.00 in
19:49 86.5 °F 79.7 °F 29.84 in SE 6.0 mph 15.0 mph 80 % 0.00 in
19:54 86.5 °F 79.7 °F 29.84 in SE 4.0 mph 15.0 mph 80 % 0.00 in
19:59 86.5 °F 79.7 °F 29.84 in SE 7.0 mph 15.0 mph 80 % 0.00 in
20:04 86.5 °F 79.7 °F 29.84 in ESE 7.0 mph 12.0 mph 80 % 0.00 in
20:09 86.4 °F 79.5 °F 29.84 in South 6.0 mph 12.0 mph 80 % 0.00 in
20:14 86.4 °F 79.5 °F 29.84 in SSE 6.0 mph 12.0 mph 80 % 0.00 in
20:19 86.2 °F 79.3 °F 29.84 in SSE 7.0 mph 12.0 mph 80 % 0.00 in
20:24 86.2 °F 79.3 °F 29.84 in SSE 2.0 mph 12.0 mph 80 % 0.00 in
20:30 86.0 °F 79.5 °F 29.84 in SE 3.0 mph 11.0 mph 81 % 0.00 in
20:35 85.8 °F 79.3 °F 29.84 in ESE 9.0 mph 11.0 mph 81 % 0.00 in
20:40 85.6 °F 79.2 °F 29.84 in SE 6.0 mph 11.0 mph 81 % 0.00 in
20:45 85.5 °F 78.6 °F 29.84 in SE 7.0 mph 12.0 mph 80 % 0.00 in
20:50 85.5 °F 78.6 °F 29.84 in SSW 6.0 mph 12.0 mph 80 % 0.00 in
20:55 85.3 °F 78.4 °F 29.84 in SSE 5.0 mph 14.0 mph 80 % 0.00 in
21:00 85.3 °F 78.4 °F 29.85 in SSE 7.0 mph 14.0 mph 80 % 0.00 in
21:05 85.1 °F 77.9 °F 29.85 in SE 3.0 mph 14.0 mph 79 % 0.00 in
21:10 84.9 °F 77.7 °F 29.85 in SE 6.0 mph 12.0 mph 79 % 0.00 in
21:15 84.9 °F 77.7 °F 29.85 in ESE 8.0 mph 11.0 mph 79 % 0.00 in
21:21 84.7 °F 77.5 °F 29.85 in South 5.0 mph 11.0 mph 79 % 0.00 in
21:26 84.7 °F 77.9 °F 29.85 in SE 4.0 mph 11.0 mph 80 % 0.00 in
21:31 84.6 °F 77.7 °F 29.85 in ESE 5.0 mph 11.0 mph 80 % 0.00 in
21:36 84.4 °F 77.9 °F 29.86 in SE 2.0 mph 11.0 mph 81 % 0.00 in
21:41 84.4 °F 77.9 °F 29.86 in South 4.0 mph 11.0 mph 81 % 0.00 in
21:46 84.0 °F 77.9 °F 29.86 in East 8.0 mph 11.0 mph 82 % 0.00 in
21:51 84.0 °F 78.3 °F 29.86 in SE 7.0 mph 11.0 mph 83 % 0.00 in
21:56 83.8 °F 78.1 °F 29.86 in SE 5.0 mph 11.0 mph 83 % 0.00 in
22:01 83.7 °F 78.3 °F 29.86 in SSE 6.0 mph 10.0 mph 84 % 0.00 in
22:06 83.5 °F 78.1 °F 29.86 in SSE 4.0 mph 10.0 mph 84 % 0.00 in
22:11 83.5 °F 78.1 °F 29.87 in SE 6.0 mph 12.0 mph 84 % 0.00 in
22:16 83.5 °F 78.4 °F 29.87 in SE 4.0 mph 12.0 mph 85 % 0.00 in
22:21 83.3 °F 78.3 °F 29.87 in SW 3.0 mph 13.0 mph 85 % 0.00 in
22:26 83.1 °F 78.1 °F 29.87 in SSE 5.0 mph 13.0 mph 85 % 0.00 in
22:31 83.1 °F 78.1 °F 29.87 in SE 4.0 mph 13.0 mph 85 % 0.00 in
22:36 82.9 °F 77.9 °F 29.87 in SSE 7.0 mph 12.0 mph 85 % 0.00 in
22:41 82.9 °F 78.3 °F 29.87 in SSE 5.0 mph 12.0 mph 86 % 0.00 in
22:46 82.9 °F 78.3 °F 29.87 in SE 6.0 mph 10.0 mph 86 % 0.00 in
22:51 82.8 °F 78.1 °F 29.87 in SE 7.0 mph 10.0 mph 86 % 0.00 in
22:56 82.8 °F 78.1 °F 29.87 in SSE 3.0 mph 10.0 mph 86 % 0.00 in
23:01 82.6 °F 77.9 °F 29.88 in ESE 8.0 mph 10.0 mph 86 % 0.00 in
23:06 82.6 °F 78.3 °F 29.87 in SE 6.0 mph 11.0 mph 87 % 0.00 in
23:11 82.6 °F 78.3 °F 29.87 in SSE 2.0 mph 11.0 mph 87 % 0.00 in
23:16 82.6 °F 78.3 °F 29.88 in SSE 5.0 mph 11.0 mph 87 % 0.00 in
23:19 82.6 °F 78.3 °F 29.88 in SE 3.0 mph 11.0 mph 87 % 0.00 in
23:24 82.4 °F 78.1 °F 29.88 in SE 6.0 mph 12.0 mph 87 % 0.00 in
23:29 82.6 °F 78.3 °F 29.88 in SE 5.0 mph 12.0 mph 87 % 0.00 in
23:34 82.6 °F 78.6 °F 29.88 in SSW 4.0 mph 12.0 mph 88 % 0.00 in
23:39 82.6 °F 78.6 °F 29.88 in SSE 4.0 mph 10.0 mph 88 % 0.00 in
23:44 82.4 °F 78.4 °F 29.88 in South 5.0 mph 10.0 mph 88 % 0.00 in
23:49 82.2 °F 78.3 °F 29.89 in SSW 6.0 mph 11.0 mph 88 % 0.00 in
23:54 82.0 °F 78.1 °F 29.89 in SSW 2.0 mph 11.0 mph 88 % 0.00 in
23:59 82.0 °F 78.1 °F 29.89 in SE 10.0 mph 11.0 mph 88 % 0.00 in
Spring, Texas: Villages of Bridgestone
Compliments of Weather Underground - 2.75 mb

Script developed by  Jim McMurry - jmcmurry@mwt.net Adapted for the template by  Wim van der Kuil - Leuven-Template.eu

You find our weather info also at:

UK Metoffice

WeatherCloud

Weather Underground

Mid-South Weather Network

AWEKAS

Citizen Weather Observer Program (CWOP)

HAMweather, WeatherForYou, PWS Weather

Equipment we use:

Weather-station
Davis Vantage Vue

Weather-program
Meteohub

Weather-server
Debian 7.9 x86 (Guest)

Provider
DreamHost

Davis Vantage Vue

Meteohub

Debian 7.9 x86 (Guest)

DreamHost